Ali Cat — MZCL8 — position and weather

sailwx.info

Track history (hours):
 
Tides and Currents Weather Stations Pressure Air Temp Water Temp Dewpoint Dewpoint Depression Visibility Wind Speed Wind Dir Waves Ship Positions

Ali Cat

Operator: MRCC Clyde

Last reported at 2020-Aug-09 19:59 UTC. Time now 2020-Aug-09 23:28 UTC.
Position N 55°57' W 004°53'.

Length 20 m.

Type: Passenger vessel. MMSI: 235056506.

Date/timePositionNaut miles runAvg speedWind from/ knotsBaromVisibWave heightAir tempDewpointWater temp
2020-Aug-09 19:59N 55°57' W 004°53'0 0.1
2020-Aug-09 18:01N 55°57' W 004°52'1 0.3
2020-Aug-09 16:04N 55°57' W 004°51'1 0.7
2020-Aug-09 14:59N 55°57' W 004°53'0 0.1
2020-Aug-09 12:01N 55°57' W 004°52'0 0.2
2020-Aug-09 11:00N 55°57' W 004°52'0 0.2
2020-Aug-09 09:02N 55°57' W 004°52'0 0.0
2020-Aug-08 21:03N 55°57' W 004°52'1 0.3
2020-Aug-08 17:14N 55°58' W 004°51'1 0.3
2020-Aug-08 14:07N 55°57' W 004°52'2 1.4
2020-Aug-08 13:00N 55°57' W 004°55'1 0.7
2020-Aug-08 11:05N 55°57' W 004°52'110.2
2020-Aug-08 11:00N 55°57' W 004°54'1 0.4
2020-Aug-08 09:00N 55°57' W 004°52'0 0.1
2020-Aug-08 08:00N 55°57' W 004°53'0 0.0
2020-Aug-07 19:05N 55°57' W 004°52'0 0.2
2020-Aug-07 17:06N 55°57' W 004°53'0 0.3
2020-Aug-07 16:09N 55°57' W 004°53'2 0.8
2020-Aug-07 13:59N 55°57' W 004°55'0 0.1
2020-Aug-07 12:59N 55°57' W 004°55'2 2.5
2020-Aug-07 12:17N 55°57' W 004°52'0 0.1
2020-Aug-07 10:00N 55°57' W 004°52'0 0.0
2020-Aug-06 20:00N 55°57' W 004°52'0 0.1
2020-Aug-06 16:00N 55°57' W 004°53'1 0.4
2020-Aug-06 13:06N 55°58' W 004°51'1 0.1
2020-Aug-06 05:55N 55°57' W 004°52'0 0.0
2020-Aug-05 20:00N 55°57' W 004°52'0 0.0
2020-Aug-05 14:00N 55°57' W 004°52'0 0.0
2020-Aug-05 13:00N 55°57' W 004°53'0 0.1
2020-Aug-05 09:02N 55°57' W 004°52'0 0.0
2020-Aug-04 08:59N 55°57' W 004°53'0 0.0
2020-Aug-03 16:02N 55°57' W 004°53'0 0.1
2020-Aug-03 15:01N 55°57' W 004°53'0 0.0
2020-Aug-03 13:00N 55°57' W 004°53'0 0.0
2020-Aug-03 11:00N 55°57' W 004°53'0 0.1
2020-Aug-03 10:00N 55°57' W 004°53'0 0.3
2020-Aug-03 09:00N 55°57' W 004°52'0 0.1
2020-Aug-03 06:59N 55°57' W 004°53'0 0.0
2020-Aug-02 16:01N 55°57' W 004°53'0 0.0
2020-Aug-02 13:02N 55°57' W 004°52'010.4
2020-Aug-02 13:00N 55°57' W 004°53'1 0.7
2020-Aug-02 12:03N 55°57' W 004°52'1 0.4
2020-Aug-02 09:57N 55°57' W 004°53'0 0.0
2020-Aug-01 16:00N 55°57' W 004°53'0 0.1
2020-Aug-01 14:00N 55°57' W 004°52'0 0.1
2020-Aug-01 11:02N 55°57' W 004°52'0 0.2
2020-Aug-01 09:04N 55°57' W 004°52'0 0.0
2020-Jul-31 18:00N 55°57' W 004°53'0 0.2
2020-Jul-31 15:03N 55°57' W 004°52'1 0.2
2020-Jul-31 12:00N 55°57' W 004°53'0 0.1
2020-Jul-31 10:00N 55°57' W 004°53'0 0.1
2020-Jul-31 06:01N 55°57' W 004°52'010.8
2020-Jul-31 06:00N 55°57' W 004°53'  
Track history (hours):
 
Tides and Currents Weather Stations Pressure Air Temp Water Temp Dewpoint Dewpoint Depression Visibility Wind Speed Wind Dir Waves Ship Positions

Ali Cat

Operator: MRCC Clyde

Last reported at 2020-Aug-09 19:59 UTC. Time now 2020-Aug-09 23:28 UTC.
Position N 55°57' W 004°53'.

Length 20 m.

Type: Passenger vessel. MMSI: 235056506.

Date/timePositionNaut miles runAvg speedWind from/ knotsBaromVisibWave heightAir tempDewpointWater temp
2020-Aug-09 19:59N 55°57' W 004°53'0 0.1
2020-Aug-09 18:01N 55°57' W 004°52'1 0.3
2020-Aug-09 16:04N 55°57' W 004°51'1 0.7
2020-Aug-09 14:59N 55°57' W 004°53'0 0.1
2020-Aug-09 12:01N 55°57' W 004°52'0 0.2
2020-Aug-09 11:00N 55°57' W 004°52'0 0.2
2020-Aug-09 09:02N 55°57' W 004°52'0 0.0
2020-Aug-08 21:03N 55°57' W 004°52'1 0.3
2020-Aug-08 17:14N 55°58' W 004°51'1 0.3
2020-Aug-08 14:07N 55°57' W 004°52'2 1.4
2020-Aug-08 13:00N 55°57' W 004°55'1 0.7
2020-Aug-08 11:05N 55°57' W 004°52'110.2
2020-Aug-08 11:00N 55°57' W 004°54'1 0.4
2020-Aug-08 09:00N 55°57' W 004°52'0 0.1
2020-Aug-08 08:00N 55°57' W 004°53'0 0.0
2020-Aug-07 19:05N 55°57' W 004°52'0 0.2
2020-Aug-07 17:06N 55°57' W 004°53'0 0.3
2020-Aug-07 16:09N 55°57' W 004°53'2 0.8
2020-Aug-07 13:59N 55°57' W 004°55'0 0.1
2020-Aug-07 12:59N 55°57' W 004°55'2 2.5
2020-Aug-07 12:17N 55°57' W 004°52'0 0.1
2020-Aug-07 10:00N 55°57' W 004°52'0 0.0
2020-Aug-06 20:00N 55°57' W 004°52'0 0.1
2020-Aug-06 16:00N 55°57' W 004°53'1 0.4
2020-Aug-06 13:06N 55°58' W 004°51'1 0.1
2020-Aug-06 05:55N 55°57' W 004°52'0 0.0
2020-Aug-05 20:00N 55°57' W 004°52'0 0.0
2020-Aug-05 14:00N 55°57' W 004°52'0 0.0
2020-Aug-05 13:00N 55°57' W 004°53'0 0.1
2020-Aug-05 09:02N 55°57' W 004°52'0 0.0
2020-Aug-04 08:59N 55°57' W 004°53'0 0.0
2020-Aug-03 16:02N 55°57' W 004°53'0 0.1
2020-Aug-03 15:01N 55°57' W 004°53'0 0.0
2020-Aug-03 13:00N 55°57' W 004°53'0 0.0
2020-Aug-03 11:00N 55°57' W 004°53'0 0.1
2020-Aug-03 10:00N 55°57' W 004°53'0 0.3
2020-Aug-03 09:00N 55°57' W 004°52'0 0.1
2020-Aug-03 06:59N 55°57' W 004°53'0 0.0
2020-Aug-02 16:01N 55°57' W 004°53'0 0.0
2020-Aug-02 13:02N 55°57' W 004°52'010.4
2020-Aug-02 13:00N 55°57' W 004°53'1 0.7
2020-Aug-02 12:03N 55°57' W 004°52'1 0.4
2020-Aug-02 09:57N 55°57' W 004°53'0 0.0
2020-Aug-01 16:00N 55°57' W 004°53'0 0.1
2020-Aug-01 14:00N 55°57' W 004°52'0 0.1
2020-Aug-01 11:02N 55°57' W 004°52'0 0.2
2020-Aug-01 09:04N 55°57' W 004°52'0 0.0
2020-Jul-31 18:00N 55°57' W 004°53'0 0.2
2020-Jul-31 15:03N 55°57' W 004°52'1 0.2
2020-Jul-31 12:00N 55°57' W 004°53'0 0.1
2020-Jul-31 10:00N 55°57' W 004°53'0 0.1
2020-Jul-31 06:01N 55°57' W 004°52'010.8
2020-Jul-31 06:00N 55°57' W 004°53'  

Dump ship's entire track history